Napakiak, Alaska
Current Conditions -  °F | °C
As of 10:56 AM on Friday 31 Oct 2014 (Local Time) from PANA Reporting Station
Clear Clear  
Wind Chill: -1°   Ceiling: Unl
Heat Index: 14°   Visibility: 10mi
Dew Point: 10°   Wind: 14mph
Humidity: 84%   Direction: 40°NE
Pressure: 29.12"   Gusts: 23mph
Location:  60.7°N, 161.95°W
Report Text: PANA 311856Z AUTO 04012G20KT 10SM CLR M10/M12 A2912 RMK AO2 SLP861 T11001122 FZRANO
Loading
Personal Weather Stations






























Interactive Weather Map
Tropical Storm Tracking
New forecast layout! Learn more

10-Day Weather Forecast

Advertisements
Track Severe Weather on mobile